< < Back
Terminal Aerodrome Forecast


Current Version              Previous Versions:   1  2  3  4  5  6  7  8  9  

Terminal Aerodrome Forecast

658
FTUS42 KFFC 301737
TAFMCN
TAF
KMCN 301737Z 3018/3118 VRB05KT P6SM FEW045 SCT100
      TEMPO 3020/3024 TSRA BKN050CB
     FM310200 24004KT P6SM SCT250
     FM310900 24003KT 5SM BR SCT035
     FM311200 24003KT P6SM BKN035 PROB30 3115/3118 SHRA OVC025=

Latest METAR

620
SAUS80 KWBC 310900
MTRMCN
METAR KMCN 310853Z AUTO 00000KT 10SM BKN120 24/22 A3002 RMK AO2 SLP162
T02390217 55002 TSNO


USA.gov is the U.S. government's official web portal to all federal, state and local government web resources and services.